Marseillais 6 — FQSJ — position and weather

sailwx.info

Track history (hours):
 
Tides and Currents Weather Stations Pressure Air Temp Water Temp Dewpoint Dewpoint Depression Visibility Wind Speed Wind Dir Waves Ship Positions

Marseillais 6

Last reported at 2016-Jun-25 04:34 UTC. Time now 2016-Jun-25 05:22 UTC.
Position N 43°24' E 004°59'.

Length 35 m; draft 5 m.

Type: Tug. MMSI: 227016900.

Date/timePositionNaut miles runAvg speedWind from/ knotsBaromVisibWave heightAir tempDewpointWater temp
2016-Jun-25 04:34N 43°24' E 004°59'0 0.0
2016-Jun-25 03:34N 43°24' E 004°59'0 0.0
2016-Jun-25 02:33N 43°24' E 004°59'0 0.0
2016-Jun-25 01:33N 43°24' E 004°59'0 0.0
2016-Jun-25 00:33N 43°24' E 004°59'0 0.4
2016-Jun-24 23:33N 43°24' E 004°59'1 0.5
2016-Jun-24 22:33N 43°24' E 004°60'0 0.4
2016-Jun-24 21:33N 43°24' E 004°59'0 0.0
2016-Jun-24 20:33N 43°24' E 004°59'0 0.0
2016-Jun-24 19:33N 43°24' E 004°59'0 0.0
2016-Jun-24 18:34N 43°24' E 004°59'5 3.6
2016-Jun-24 17:06N 43°26' E 004°52'5 3.4
2016-Jun-24 15:33N 43°24' E 004°59'0 0.0
2016-Jun-24 14:33N 43°24' E 004°59'0 0.0
2016-Jun-24 13:34N 43°24' E 004°59'0 0.0
2016-Jun-24 12:34N 43°24' E 004°59'2 1.2
2016-Jun-24 10:28N 43°24' E 004°56'2 1.3
2016-Jun-24 09:14N 43°24' E 004°53'1 0.4
2016-Jun-24 07:30N 43°25' E 004°54'4 1.3
2016-Jun-24 04:33N 43°24' E 004°59'0 0.0
2016-Jun-24 03:33N 43°24' E 004°59'0 0.0
2016-Jun-24 02:33N 43°24' E 004°59'0 0.0
2016-Jun-24 01:33N 43°24' E 004°59'0 0.0
2016-Jun-24 00:33N 43°24' E 004°59'0 0.0
2016-Jun-23 23:34N 43°24' E 004°59'0 0.0
2016-Jun-23 22:33N 43°24' E 004°59'0 0.0
2016-Jun-23 21:34N 43°24' E 004°59'0 0.0
2016-Jun-23 20:33N 43°24' E 004°59'0 0.0
2016-Jun-23 19:33N 43°24' E 004°59'0 0.0
2016-Jun-23 18:33N 43°24' E 004°59'0 0.0
2016-Jun-23 17:33N 43°24' E 004°59'0 0.0
2016-Jun-23 16:33N 43°24' E 004°59'0 0.0
2016-Jun-23 15:33N 43°24' E 004°59'0 0.0
2016-Jun-23 14:33N 43°24' E 004°59'0 0.0
2016-Jun-23 13:34N 43°24' E 004°59'0 0.0
2016-Jun-23 12:33N 43°24' E 004°59'0 0.0
2016-Jun-23 11:34N 43°24' E 004°59'0 0.0
2016-Jun-23 10:33N 43°24' E 004°59'0 0.0
2016-Jun-23 09:33N 43°24' E 004°59'0 0.0
2016-Jun-23 08:33N 43°24' E 004°59'0 0.0
2016-Jun-23 07:33N 43°24' E 004°59'0 0.0
2016-Jun-23 05:33N 43°24' E 004°59'0 0.0
2016-Jun-23 04:33N 43°24' E 004°59'0 0.0
2016-Jun-23 03:33N 43°24' E 004°59'0 0.0
2016-Jun-23 02:33N 43°24' E 004°59'0 0.0
2016-Jun-23 01:33N 43°24' E 004°59'0 0.0
2016-Jun-23 00:34N 43°24' E 004°59'0 0.0
2016-Jun-22 23:33N 43°24' E 004°59'0 0.0
2016-Jun-22 22:33N 43°24' E 004°59'0 0.0
2016-Jun-22 21:33N 43°24' E 004°59'0 0.0
2016-Jun-22 20:34N 43°24' E 004°59'0 0.0
2016-Jun-22 19:33N 43°24' E 004°59'0 0.0
2016-Jun-22 18:33N 43°24' E 004°59'0 0.0
2016-Jun-22 17:33N 43°24' E 004°59'0 0.0
2016-Jun-22 16:34N 43°24' E 004°59'6 5.9
2016-Jun-22 15:33N 43°24' E 004°51'6 6.0
2016-Jun-22 14:33N 43°24' E 004°59'0 0.0
2016-Jun-22 13:34N 43°24' E 004°59'0 0.0
2016-Jun-22 12:33N 43°24' E 004°59'4 4.0
2016-Jun-22 11:33N 43°25' E 004°54'4 3.9
2016-Jun-22 10:33N 43°23' E 004°59'1 0.6
2016-Jun-22 09:34N 43°24' E 004°59'0 0.0
2016-Jun-22 08:33N 43°24' E 004°59'0 0.0
2016-Jun-22 07:33N 43°24' E 004°59'0 0.0
2016-Jun-22 06:33N 43°24' E 004°59'0 0.3
2016-Jun-22 05:33N 43°24' E 004°60'7 6.0
2016-Jun-22 04:25N 43°25' E 004°50'1 0.7
2016-Jun-22 03:33N 43°25' E 004°51'6 6.4
2016-Jun-22 02:33N 43°24' E 004°60'1 0.5
2016-Jun-22 01:33N 43°24' E 004°59'0 0.0
2016-Jun-22 00:33N 43°24' E 004°59'0 0.0
2016-Jun-21 23:33N 43°24' E 004°59'0 0.0
2016-Jun-21 22:33N 43°24' E 004°59'0 0.0
2016-Jun-21 21:33N 43°24' E 004°59'0 0.0
2016-Jun-21 20:34N 43°24' E 004°59'0 0.0
2016-Jun-21 19:33N 43°24' E 004°59'4 4.2
2016-Jun-21 18:33N 43°24' E 004°53'1 1.1
2016-Jun-21 17:33N 43°24' E 004°55'3 3.2
2016-Jun-21 16:33N 43°24' E 004°59'0 0.0
2016-Jun-21 15:33N 43°24' E 004°59'0 0.0
2016-Jun-21 14:33N 43°24' E 004°59'0 0.0
2016-Jun-21 13:33N 43°24' E 004°59'0 0.0
2016-Jun-21 12:33N 43°24' E 004°59'0 0.0
2016-Jun-21 11:33N 43°24' E 004°59'0 0.3
2016-Jun-21 10:33N 43°24' E 004°59'0 0.3
2016-Jun-21 09:34N 43°24' E 004°59'0 0.4
2016-Jun-21 08:33N 43°24' E 004°60'1 1.2
2016-Jun-21 07:33N 43°23' E 004°58'3 1.5
2016-Jun-21 05:33N 43°24' E 004°54'1 0.9
2016-Jun-21 04:32N 43°25' E 004°53'1 1.2
2016-Jun-21 03:33N 43°26' E 004°54'0 0.0
2016-Jun-21 02:33N 43°26' E 004°54'0 0.0
2016-Jun-21 01:33N 43°26' E 004°54'0 0.0
2016-Jun-21 00:33N 43°26' E 004°54'0 0.0
2016-Jun-20 23:34N 43°26' E 004°54'0 0.0
2016-Jun-20 22:34N 43°26' E 004°54'0 0.0
2016-Jun-20 21:33N 43°26' E 004°54'0 0.0
2016-Jun-20 20:34N 43°26' E 004°54'0 0.0
2016-Jun-20 19:34N 43°26' E 004°54'3 2.9
2016-Jun-20 18:33N 43°25' E 004°50'3 2.9
2016-Jun-20 17:33N 43°26' E 004°54'0 0.0
2016-Jun-20 16:16N 43°26' E 004°54'0 0.0
2016-Jun-20 14:27N 43°26' E 004°54'1 1.5
2016-Jun-20 13:33N 43°24' E 004°53'1 1.1
2016-Jun-20 12:32N 43°24' E 004°55'1 1.1
2016-Jun-20 11:32N 43°24' E 004°53'1 1.3
2016-Jun-20 10:25N 43°26' E 004°54'0 0.0
2016-Jun-20 09:33N 43°26' E 004°54'0 0.0
2016-Jun-20 08:26N 43°26' E 004°54'0 0.0
2016-Jun-20 07:30N 43°26' E 004°54'0 0.0
2016-Jun-20 06:32N 43°26' E 004°54'0 0.0
2016-Jun-20 05:26N 43°26' E 004°54'0 0.0
2016-Jun-20 04:31N 43°26' E 004°54'0 0.0
2016-Jun-20 03:32N 43°26' E 004°54'0 0.0
2016-Jun-20 02:32N 43°26' E 004°54'0 0.0
2016-Jun-20 01:34N 43°26' E 004°54'0 0.0
2016-Jun-20 00:32N 43°26' E 004°54'3 2.1
2016-Jun-19 23:09N 43°24' E 004°51'2 2.9
2016-Jun-19 22:34N 43°24' E 004°53'2 2.3
2016-Jun-19 21:32N 43°25' E 004°50'3 2.9
2016-Jun-19 20:34N 43°24' E 004°54'1 0.9
2016-Jun-19 19:33N 43°25' E 004°53'1 0.8
2016-Jun-19 18:33N 43°24' E 004°53'2 1.9
2016-Jun-19 17:33N 43°25' E 004°51'1 0.8
2016-Jun-19 16:33N 43°24' E 004°52'1 0.7
2016-Jun-19 15:33N 43°24' E 004°53'1 1.5
2016-Jun-19 14:33N 43°25' E 004°51'2 2.5
2016-Jun-19 13:34N 43°26' E 004°54'0 0.0
2016-Jun-19 12:33N 43°26' E 004°54'0 0.0
2016-Jun-19 11:33N 43°26' E 004°54'0 0.0
2016-Jun-19 10:29N 43°26' E 004°54'0 0.0
2016-Jun-19 09:33N 43°26' E 004°54'0 0.0
2016-Jun-19 08:32N 43°26' E 004°54'0 0.0
2016-Jun-19 07:33N 43°26' E 004°54'0 0.0
2016-Jun-19 06:23N 43°26' E 004°54'0 0.0
2016-Jun-19 05:33N 43°26' E 004°54'0 0.0
2016-Jun-19 04:26N 43°26' E 004°54'0 0.0
2016-Jun-19 03:33N 43°26' E 004°54'0 0.0
2016-Jun-19 02:33N 43°26' E 004°54'0 0.0
2016-Jun-19 01:32N 43°26' E 004°54'0 0.0
2016-Jun-19 00:31N 43°26' E 004°54'0 0.0
2016-Jun-18 23:30N 43°26' E 004°54'0 0.0
2016-Jun-18 22:17N 43°26' E 004°54'1 0.9
2016-Jun-18 21:29N 43°25' E 004°53'1 0.8
2016-Jun-18 20:33N 43°26' E 004°54'0 0.0
2016-Jun-18 19:31N 43°26' E 004°54'0 0.0
2016-Jun-18 18:31N 43°26' E 004°54'0 0.0
2016-Jun-18 17:16N 43°26' E 004°54'0 0.0
2016-Jun-18 16:30N 43°26' E 004°54'0 0.0
2016-Jun-18 15:33N 43°26' E 004°54'0 0.0
2016-Jun-18 14:31N 43°26' E 004°54'0 0.0
2016-Jun-18 13:20N 43°26' E 004°54'0 0.0
2016-Jun-18 11:30N 43°26' E 004°54'2 2.6
2016-Jun-18 10:33N 43°25' E 004°51'2 2.2
2016-Jun-18 09:27N 43°26' E 004°54'0 0.0
2016-Jun-18 08:33N 43°26' E 004°54'0 0.0
2016-Jun-18 07:32N 43°26' E 004°54'0 0.0
2016-Jun-18 06:33N 43°26' E 004°54'0 0.0
2016-Jun-18 04:12N 43°26' E 004°54'0 0.0
2016-Jun-18 03:33N 43°26' E 004°54'0 0.0
2016-Jun-18 02:33N 43°26' E 004°54'1 1.2
2016-Jun-18 01:33N 43°25' E 004°53'1 0.7
2016-Jun-18 00:31N 43°24' E 004°54'2 1.6
2016-Jun-17 23:31N 43°26' E 004°54'4 4.6
2016-Jun-17 22:33N 43°24' E 004°60'1 0.9
2016-Jun-17 21:33N 43°23' E 004°59'6 5.8
2016-Jun-17 20:33N 43°25' E 004°51'1 1.4
2016-Jun-17 19:33N 43°24' E 004°53'2 1.8
2016-Jun-17 18:33N 43°26' E 004°54'0 0.0
2016-Jun-17 17:32N 43°26' E 004°54'0 0.0
2016-Jun-17 16:16N 43°26' E 004°54'0 0.0
2016-Jun-17 09:26N 43°26' E 004°54'0 0.0
2016-Jun-17 07:31N 43°26' E 004°54'2 1.7
2016-Jun-17 06:16N 43°24' E 004°52'2 1.2
2016-Jun-17 04:30N 43°26' E 004°54'0 0.0
2016-Jun-17 03:32N 43°26' E 004°54'0 0.0
2016-Jun-17 02:33N 43°26' E 004°54'0 0.0
2016-Jun-17 01:32N 43°26' E 004°54'0 0.0
2016-Jun-17 00:33N 43°26' E 004°54'0 0.0
2016-Jun-16 23:33N 43°26' E 004°54'0 0.0
2016-Jun-16 22:33N 43°26' E 004°54'0 0.0
2016-Jun-16 21:33N 43°26' E 004°54'0 0.0
2016-Jun-16 20:32N 43°26' E 004°54'0 0.0
2016-Jun-16 19:33N 43°26' E 004°54'3 2.7
2016-Jun-16 18:31N 43°25' E 004°50'2 2.3
2016-Jun-16 17:33N 43°25' E 004°53'1 0.6
2016-Jun-16 16:26N 43°26' E 004°54'0 0.0
2016-Jun-16 15:33N 43°26' E 004°54'0 0.0
2016-Jun-16 14:30N 43°26' E 004°54'7 7.2
2016-Jun-16 13:33N 43°24' E 005°03'6 6.2
2016-Jun-16 12:33N 43°24' E 004°54'2 1.7
2016-Jun-16 11:33N 43°25' E 004°53'1 0.6
2016-Jun-16 10:33N 43°26' E 004°54'0 0.0
2016-Jun-16 09:33N 43°26' E 004°54'0 0.0
2016-Jun-16 08:33N 43°26' E 004°54'0 0.0
2016-Jun-16 07:33N 43°26' E 004°54'0 0.0
2016-Jun-16 06:33N 43°26' E 004°54'0 0.0
2016-Jun-16 05:33N 43°26' E 004°54'0 0.0
2016-Jun-16 04:31N 43°26' E 004°54'0 0.0
2016-Jun-16 03:33N 43°26' E 004°54'0 0.0
2016-Jun-16 02:33N 43°26' E 004°54'0 0.0
2016-Jun-16 01:33N 43°26' E 004°54'0 0.0
2016-Jun-16 00:32N 43°26' E 004°54'0 0.0
2016-Jun-15 23:30N 43°26' E 004°54'0 0.0
2016-Jun-15 22:32N 43°26' E 004°54'0 0.0
2016-Jun-15 20:22N 43°26' E 004°54'0 0.0
2016-Jun-15 19:24N 43°26' E 004°54'0 0.0
2016-Jun-15 18:29N 43°26' E 004°54'0 0.0
2016-Jun-15 17:26N 43°26' E 004°54'0 0.0
2016-Jun-15 16:32N 43°26' E 004°54'0 0.0
2016-Jun-15 15:33N 43°26' E 004°54'0 0.0
2016-Jun-15 14:30N 43°26' E 004°54'0 0.0
2016-Jun-15 13:32N 43°26' E 004°54'0 0.0
2016-Jun-15 12:31N 43°26' E 004°54'0 0.0
2016-Jun-15 11:32N 43°26' E 004°54'0 0.0
2016-Jun-15 10:31N 43°26' E 004°54'0 0.0
2016-Jun-15 09:33N 43°26' E 004°54'0 0.0
2016-Jun-15 08:31N 43°26' E 004°54'0 0.0
2016-Jun-15 07:33N 43°26' E 004°54'0 0.0
2016-Jun-15 06:31N 43°26' E 004°54'0 0.0
2016-Jun-15 05:28N 43°26' E 004°54'  
Track history (hours):
 
Tides and Currents Weather Stations Pressure Air Temp Water Temp Dewpoint Dewpoint Depression Visibility Wind Speed Wind Dir Waves Ship Positions

Marseillais 6

Last reported at 2016-Jun-25 04:34 UTC. Time now 2016-Jun-25 05:22 UTC.
Position N 43°24' E 004°59'.

Length 35 m; draft 5 m.

Type: Tug. MMSI: 227016900.

Date/timePositionNaut miles runAvg speedWind from/ knotsBaromVisibWave heightAir tempDewpointWater temp
2016-Jun-25 04:34N 43°24' E 004°59'0 0.0
2016-Jun-25 03:34N 43°24' E 004°59'0 0.0
2016-Jun-25 02:33N 43°24' E 004°59'0 0.0
2016-Jun-25 01:33N 43°24' E 004°59'0 0.0
2016-Jun-25 00:33N 43°24' E 004°59'0 0.4
2016-Jun-24 23:33N 43°24' E 004°59'1 0.5
2016-Jun-24 22:33N 43°24' E 004°60'0 0.4
2016-Jun-24 21:33N 43°24' E 004°59'0 0.0
2016-Jun-24 20:33N 43°24' E 004°59'0 0.0
2016-Jun-24 19:33N 43°24' E 004°59'0 0.0
2016-Jun-24 18:34N 43°24' E 004°59'5 3.6
2016-Jun-24 17:06N 43°26' E 004°52'5 3.4
2016-Jun-24 15:33N 43°24' E 004°59'0 0.0
2016-Jun-24 14:33N 43°24' E 004°59'0 0.0
2016-Jun-24 13:34N 43°24' E 004°59'0 0.0
2016-Jun-24 12:34N 43°24' E 004°59'2 1.2
2016-Jun-24 10:28N 43°24' E 004°56'2 1.3
2016-Jun-24 09:14N 43°24' E 004°53'1 0.4
2016-Jun-24 07:30N 43°25' E 004°54'4 1.3
2016-Jun-24 04:33N 43°24' E 004°59'0 0.0
2016-Jun-24 03:33N 43°24' E 004°59'0 0.0
2016-Jun-24 02:33N 43°24' E 004°59'0 0.0
2016-Jun-24 01:33N 43°24' E 004°59'0 0.0
2016-Jun-24 00:33N 43°24' E 004°59'0 0.0
2016-Jun-23 23:34N 43°24' E 004°59'0 0.0
2016-Jun-23 22:33N 43°24' E 004°59'0 0.0
2016-Jun-23 21:34N 43°24' E 004°59'0 0.0
2016-Jun-23 20:33N 43°24' E 004°59'0 0.0
2016-Jun-23 19:33N 43°24' E 004°59'0 0.0
2016-Jun-23 18:33N 43°24' E 004°59'0 0.0
2016-Jun-23 17:33N 43°24' E 004°59'0 0.0
2016-Jun-23 16:33N 43°24' E 004°59'0 0.0
2016-Jun-23 15:33N 43°24' E 004°59'0 0.0
2016-Jun-23 14:33N 43°24' E 004°59'0 0.0
2016-Jun-23 13:34N 43°24' E 004°59'0 0.0
2016-Jun-23 12:33N 43°24' E 004°59'0 0.0
2016-Jun-23 11:34N 43°24' E 004°59'0 0.0
2016-Jun-23 10:33N 43°24' E 004°59'0 0.0
2016-Jun-23 09:33N 43°24' E 004°59'0 0.0
2016-Jun-23 08:33N 43°24' E 004°59'0 0.0
2016-Jun-23 07:33N 43°24' E 004°59'0 0.0
2016-Jun-23 05:33N 43°24' E 004°59'0 0.0
2016-Jun-23 04:33N 43°24' E 004°59'0 0.0
2016-Jun-23 03:33N 43°24' E 004°59'0 0.0
2016-Jun-23 02:33N 43°24' E 004°59'0 0.0
2016-Jun-23 01:33N 43°24' E 004°59'0 0.0
2016-Jun-23 00:34N 43°24' E 004°59'0 0.0
2016-Jun-22 23:33N 43°24' E 004°59'0 0.0
2016-Jun-22 22:33N 43°24' E 004°59'0 0.0
2016-Jun-22 21:33N 43°24' E 004°59'0 0.0
2016-Jun-22 20:34N 43°24' E 004°59'0 0.0
2016-Jun-22 19:33N 43°24' E 004°59'0 0.0
2016-Jun-22 18:33N 43°24' E 004°59'0 0.0
2016-Jun-22 17:33N 43°24' E 004°59'0 0.0
2016-Jun-22 16:34N 43°24' E 004°59'6 5.9
2016-Jun-22 15:33N 43°24' E 004°51'6 6.0
2016-Jun-22 14:33N 43°24' E 004°59'0 0.0
2016-Jun-22 13:34N 43°24' E 004°59'0 0.0
2016-Jun-22 12:33N 43°24' E 004°59'4 4.0
2016-Jun-22 11:33N 43°25' E 004°54'4 3.9
2016-Jun-22 10:33N 43°23' E 004°59'1 0.6
2016-Jun-22 09:34N 43°24' E 004°59'0 0.0
2016-Jun-22 08:33N 43°24' E 004°59'0 0.0
2016-Jun-22 07:33N 43°24' E 004°59'0 0.0
2016-Jun-22 06:33N 43°24' E 004°59'0 0.3
2016-Jun-22 05:33N 43°24' E 004°60'7 6.0
2016-Jun-22 04:25N 43°25' E 004°50'1 0.7
2016-Jun-22 03:33N 43°25' E 004°51'6 6.4
2016-Jun-22 02:33N 43°24' E 004°60'1 0.5
2016-Jun-22 01:33N 43°24' E 004°59'0 0.0
2016-Jun-22 00:33N 43°24' E 004°59'0 0.0
2016-Jun-21 23:33N 43°24' E 004°59'0 0.0
2016-Jun-21 22:33N 43°24' E 004°59'0 0.0
2016-Jun-21 21:33N 43°24' E 004°59'0 0.0
2016-Jun-21 20:34N 43°24' E 004°59'0 0.0
2016-Jun-21 19:33N 43°24' E 004°59'4 4.2
2016-Jun-21 18:33N 43°24' E 004°53'1 1.1
2016-Jun-21 17:33N 43°24' E 004°55'3 3.2
2016-Jun-21 16:33N 43°24' E 004°59'0 0.0
2016-Jun-21 15:33N 43°24' E 004°59'0 0.0
2016-Jun-21 14:33N 43°24' E 004°59'0 0.0
2016-Jun-21 13:33N 43°24' E 004°59'0 0.0
2016-Jun-21 12:33N 43°24' E 004°59'0 0.0
2016-Jun-21 11:33N 43°24' E 004°59'0 0.3
2016-Jun-21 10:33N 43°24' E 004°59'0 0.3
2016-Jun-21 09:34N 43°24' E 004°59'0 0.4
2016-Jun-21 08:33N 43°24' E 004°60'1 1.2
2016-Jun-21 07:33N 43°23' E 004°58'3 1.5
2016-Jun-21 05:33N 43°24' E 004°54'1 0.9
2016-Jun-21 04:32N 43°25' E 004°53'1 1.2
2016-Jun-21 03:33N 43°26' E 004°54'0 0.0
2016-Jun-21 02:33N 43°26' E 004°54'0 0.0
2016-Jun-21 01:33N 43°26' E 004°54'0 0.0
2016-Jun-21 00:33N 43°26' E 004°54'0 0.0
2016-Jun-20 23:34N 43°26' E 004°54'0 0.0
2016-Jun-20 22:34N 43°26' E 004°54'0 0.0
2016-Jun-20 21:33N 43°26' E 004°54'0 0.0
2016-Jun-20 20:34N 43°26' E 004°54'0 0.0
2016-Jun-20 19:34N 43°26' E 004°54'3 2.9
2016-Jun-20 18:33N 43°25' E 004°50'3 2.9
2016-Jun-20 17:33N 43°26' E 004°54'0 0.0
2016-Jun-20 16:16N 43°26' E 004°54'0 0.0
2016-Jun-20 14:27N 43°26' E 004°54'1 1.5
2016-Jun-20 13:33N 43°24' E 004°53'1 1.1
2016-Jun-20 12:32N 43°24' E 004°55'1 1.1
2016-Jun-20 11:32N 43°24' E 004°53'1 1.3
2016-Jun-20 10:25N 43°26' E 004°54'0 0.0
2016-Jun-20 09:33N 43°26' E 004°54'0 0.0
2016-Jun-20 08:26N 43°26' E 004°54'0 0.0
2016-Jun-20 07:30N 43°26' E 004°54'0 0.0
2016-Jun-20 06:32N 43°26' E 004°54'0 0.0
2016-Jun-20 05:26N 43°26' E 004°54'0 0.0
2016-Jun-20 04:31N 43°26' E 004°54'0 0.0
2016-Jun-20 03:32N 43°26' E 004°54'0 0.0
2016-Jun-20 02:32N 43°26' E 004°54'0 0.0
2016-Jun-20 01:34N 43°26' E 004°54'0 0.0
2016-Jun-20 00:32N 43°26' E 004°54'3 2.1
2016-Jun-19 23:09N 43°24' E 004°51'2 2.9
2016-Jun-19 22:34N 43°24' E 004°53'2 2.3
2016-Jun-19 21:32N 43°25' E 004°50'3 2.9
2016-Jun-19 20:34N 43°24' E 004°54'1 0.9
2016-Jun-19 19:33N 43°25' E 004°53'1 0.8
2016-Jun-19 18:33N 43°24' E 004°53'2 1.9
2016-Jun-19 17:33N 43°25' E 004°51'1 0.8
2016-Jun-19 16:33N 43°24' E 004°52'1 0.7
2016-Jun-19 15:33N 43°24' E 004°53'1 1.5
2016-Jun-19 14:33N 43°25' E 004°51'2 2.5
2016-Jun-19 13:34N 43°26' E 004°54'0 0.0
2016-Jun-19 12:33N 43°26' E 004°54'0 0.0
2016-Jun-19 11:33N 43°26' E 004°54'0 0.0
2016-Jun-19 10:29N 43°26' E 004°54'0 0.0
2016-Jun-19 09:33N 43°26' E 004°54'0 0.0
2016-Jun-19 08:32N 43°26' E 004°54'0 0.0
2016-Jun-19 07:33N 43°26' E 004°54'0 0.0
2016-Jun-19 06:23N 43°26' E 004°54'0 0.0
2016-Jun-19 05:33N 43°26' E 004°54'0 0.0
2016-Jun-19 04:26N 43°26' E 004°54'0 0.0
2016-Jun-19 03:33N 43°26' E 004°54'0 0.0
2016-Jun-19 02:33N 43°26' E 004°54'0 0.0
2016-Jun-19 01:32N 43°26' E 004°54'0 0.0
2016-Jun-19 00:31N 43°26' E 004°54'0 0.0
2016-Jun-18 23:30N 43°26' E 004°54'0 0.0
2016-Jun-18 22:17N 43°26' E 004°54'1 0.9
2016-Jun-18 21:29N 43°25' E 004°53'1 0.8
2016-Jun-18 20:33N 43°26' E 004°54'0 0.0
2016-Jun-18 19:31N 43°26' E 004°54'0 0.0
2016-Jun-18 18:31N 43°26' E 004°54'0 0.0
2016-Jun-18 17:16N 43°26' E 004°54'0 0.0
2016-Jun-18 16:30N 43°26' E 004°54'0 0.0
2016-Jun-18 15:33N 43°26' E 004°54'0 0.0
2016-Jun-18 14:31N 43°26' E 004°54'0 0.0
2016-Jun-18 13:20N 43°26' E 004°54'0 0.0
2016-Jun-18 11:30N 43°26' E 004°54'2 2.6
2016-Jun-18 10:33N 43°25' E 004°51'2 2.2
2016-Jun-18 09:27N 43°26' E 004°54'0 0.0
2016-Jun-18 08:33N 43°26' E 004°54'0 0.0
2016-Jun-18 07:32N 43°26' E 004°54'0 0.0
2016-Jun-18 06:33N 43°26' E 004°54'0 0.0
2016-Jun-18 04:12N 43°26' E 004°54'0 0.0
2016-Jun-18 03:33N 43°26' E 004°54'0 0.0
2016-Jun-18 02:33N 43°26' E 004°54'1 1.2
2016-Jun-18 01:33N 43°25' E 004°53'1 0.7
2016-Jun-18 00:31N 43°24' E 004°54'2 1.6
2016-Jun-17 23:31N 43°26' E 004°54'4 4.6
2016-Jun-17 22:33N 43°24' E 004°60'1 0.9
2016-Jun-17 21:33N 43°23' E 004°59'6 5.8
2016-Jun-17 20:33N 43°25' E 004°51'1 1.4
2016-Jun-17 19:33N 43°24' E 004°53'2 1.8
2016-Jun-17 18:33N 43°26' E 004°54'0 0.0
2016-Jun-17 17:32N 43°26' E 004°54'0 0.0
2016-Jun-17 16:16N 43°26' E 004°54'0 0.0
2016-Jun-17 09:26N 43°26' E 004°54'0 0.0
2016-Jun-17 07:31N 43°26' E 004°54'2 1.7
2016-Jun-17 06:16N 43°24' E 004°52'2 1.2
2016-Jun-17 04:30N 43°26' E 004°54'0 0.0
2016-Jun-17 03:32N 43°26' E 004°54'0 0.0
2016-Jun-17 02:33N 43°26' E 004°54'0 0.0
2016-Jun-17 01:32N 43°26' E 004°54'0 0.0
2016-Jun-17 00:33N 43°26' E 004°54'0 0.0
2016-Jun-16 23:33N 43°26' E 004°54'0 0.0
2016-Jun-16 22:33N 43°26' E 004°54'0 0.0
2016-Jun-16 21:33N 43°26' E 004°54'0 0.0
2016-Jun-16 20:32N 43°26' E 004°54'0 0.0
2016-Jun-16 19:33N 43°26' E 004°54'3 2.7
2016-Jun-16 18:31N 43°25' E 004°50'2 2.3
2016-Jun-16 17:33N 43°25' E 004°53'1 0.6
2016-Jun-16 16:26N 43°26' E 004°54'0 0.0
2016-Jun-16 15:33N 43°26' E 004°54'0 0.0
2016-Jun-16 14:30N 43°26' E 004°54'7 7.2
2016-Jun-16 13:33N 43°24' E 005°03'6 6.2
2016-Jun-16 12:33N 43°24' E 004°54'2 1.7
2016-Jun-16 11:33N 43°25' E 004°53'1 0.6
2016-Jun-16 10:33N 43°26' E 004°54'0 0.0
2016-Jun-16 09:33N 43°26' E 004°54'0 0.0
2016-Jun-16 08:33N 43°26' E 004°54'0 0.0
2016-Jun-16 07:33N 43°26' E 004°54'0 0.0
2016-Jun-16 06:33N 43°26' E 004°54'0 0.0
2016-Jun-16 05:33N 43°26' E 004°54'0 0.0
2016-Jun-16 04:31N 43°26' E 004°54'0 0.0
2016-Jun-16 03:33N 43°26' E 004°54'0 0.0
2016-Jun-16 02:33N 43°26' E 004°54'0 0.0
2016-Jun-16 01:33N 43°26' E 004°54'0 0.0
2016-Jun-16 00:32N 43°26' E 004°54'0 0.0
2016-Jun-15 23:30N 43°26' E 004°54'0 0.0
2016-Jun-15 22:32N 43°26' E 004°54'0 0.0
2016-Jun-15 20:22N 43°26' E 004°54'0 0.0
2016-Jun-15 19:24N 43°26' E 004°54'0 0.0
2016-Jun-15 18:29N 43°26' E 004°54'0 0.0
2016-Jun-15 17:26N 43°26' E 004°54'0 0.0
2016-Jun-15 16:32N 43°26' E 004°54'0 0.0
2016-Jun-15 15:33N 43°26' E 004°54'0 0.0
2016-Jun-15 14:30N 43°26' E 004°54'0 0.0
2016-Jun-15 13:32N 43°26' E 004°54'0 0.0
2016-Jun-15 12:31N 43°26' E 004°54'0 0.0
2016-Jun-15 11:32N 43°26' E 004°54'0 0.0
2016-Jun-15 10:31N 43°26' E 004°54'0 0.0
2016-Jun-15 09:33N 43°26' E 004°54'0 0.0
2016-Jun-15 08:31N 43°26' E 004°54'0 0.0
2016-Jun-15 07:33N 43°26' E 004°54'0 0.0
2016-Jun-15 06:31N 43°26' E 004°54'0 0.0
2016-Jun-15 05:28N 43°26' E 004°54'  

Dump ship's entire track history